Time;durP1;ratioP1;P1;durP2;ratioP2;P2;SDS_P1;SDS_P2;PMS_P1;PMS_P2;Temp;Humidity;BMP_temperature;BMP_pressure;BME280_temperature;BME280_humidity;BME280_pressure;Samples;Min_cycle;Max_cycle;Signal;HPM_P1;HPM_P2
2022/03/10 13:49:42;;;;;;;6.15;3.38;;;;;;;13.73;26.51;99557.81;5110475;27;20656;-83
2022/03/10 13:52:14;;;;;;;8.55;3.35;;;;;;;13.80;25.31;99549.66;5108417;28;20040;-83
2022/03/10 13:54:41;;;;;;;6.90;3.47;;;;;;;13.82;25.35;99558.50;5107346;28;20271;-83
2022/03/10 13:57:07;;;;;;;6.90;3.88;;;;;;;13.92;27.04;99550.81;5107701;28;20048;-84
2022/03/10 13:59:34;;;;;;;6.30;3.78;;;;;;;14.05;26.62;99546.50;5103527;28;20055;-83
2022/03/10 14:02:01;;;;;;;5.82;3.42;;;;;;;14.09;26.07;99537.72;5107318;28;20526;-82
2022/03/10 14:04:37;;;;;;;7.35;3.47;;;;;;;14.09;25.85;99545.03;5107302;28;20039;-83
2022/03/10 14:07:08;;;;;;;7.65;3.85;;;;;;;14.18;25.08;99541.13;5104955;28;20113;-84
2022/03/10 14:09:43;;;;;;;8.63;3.55;;;;;;;13.97;26.66;99517.41;5107018;28;20051;-84
2022/03/10 14:12:22;;;;;;;5.53;3.58;;;;;;;14.13;27.07;99535.41;5106107;28;20044;-84
2022/03/10 14:14:52;;;;;;;5.38;3.45;;;;;;;14.05;26.39;99535.56;5107685;28;20469;-83
2022/03/10 14:17:19;;;;;;;;;;;;;;;14.05;25.44;99535.56;5106514;28;20044;-83
2022/03/10 14:19:47;;;;;;;10.20;4.13;;;;;;;13.98;26.57;99525.44;5106956;28;19927;-83
2022/03/10 14:22:18;;;;;;;5.78;4.20;;;;;;;14.03;26.97;99507.56;5106952;28;20050;-83
2022/03/10 14:24:52;;;;;;;8.02;4.43;;;;;;;14.07;26.28;99515.19;5108542;28;20043;-83
2022/03/10 14:27:19;;;;;;;6.18;4.10;;;;;;;14.05;26.66;99528.22;5105718;28;20062;-83
2022/03/10 14:29:52;;;;;;;8.35;4.03;;;;;;;13.88;26.00;99518.59;5107349;28;20074;-83
2022/03/10 14:32:18;;;;;;;5.88;3.80;;;;;;;13.92;24.97;99507.06;5126361;28;20048;-84
2022/03/10 14:34:47;;;;;;;8.57;3.22;;;;;;;13.97;26.12;99503.75;5128115;28;20050;-83
2022/03/10 14:37:14;;;;;;;6.78;3.78;;;;;;;13.98;24.98;99502.72;5129717;28;20066;-83
2022/03/10 14:39:41;;;;;;;8.45;4.28;;;;;;;13.95;24.50;99500.38;5121177;28;20028;-84
2022/03/10 14:42:08;;;;;;;6.65;3.50;;;;;;;14.04;24.61;99512.84;5118058;28;20048;-84
2022/03/10 14:44:34;;;;;;;6.78;3.38;;;;;;;14.05;24.23;99514.53;5128890;28;20039;-84
2022/03/10 14:47:01;;;;;;;5.80;3.30;;;;;;;13.87;24.32;99484.13;5119955;28;20105;-81
2022/03/10 14:49:28;;;;;;;5.72;3.63;;;;;;;13.86;24.53;99474.25;5099221;28;20048;-82
2022/03/10 14:51:56;;;;;;;6.25;3.58;;;;;;;13.93;24.30;99489.63;5102934;28;20062;-83
2022/03/10 14:54:25;;;;;;;5.70;3.45;;;;;;;14.02;24.81;99489.50;5098910;28;20051;-83
2022/03/10 14:56:53;;;;;;;5.07;3.13;;;;;;;14.11;23.49;99491.88;5099948;28;20398;-84
2022/03/10 14:59:21;;;;;;;4.97;2.67;;;;;;;13.99;22.36;99486.09;5101260;28;20099;-83
2022/03/10 15:01:50;;;;;;;4.80;3.25;;;;;;;13.85;22.97;99483.47;5083425;28;20730;-83
2022/03/10 15:04:17;;;;;;;6.10;3.35;;;;;;;13.95;23.89;99478.50;5088847;28;20483;-84
2022/03/10 15:06:43;;;;;;;5.10;3.10;;;;;;;14.17;23.76;99490.22;5092764;28;20135;-83
2022/03/10 15:09:11;;;;;;;7.55;3.10;;;;;;;14.11;22.92;99491.88;5083328;28;20132;-83
2022/03/10 15:11:39;;;;;;;4.93;2.92;;;;;;;14.05;23.83;99491.84;5092154;28;20560;-83
2022/03/10 15:14:11;;;;;;;8.48;3.00;;;;;;;13.98;23.28;99492.63;5086465;28;20047;-83
2022/03/10 15:16:38;;;;;;;5.28;3.22;;;;;;;13.93;22.36;99467.78;5087079;28;20054;-84
2022/03/10 15:19:51;;;;;;;4.57;3.03;;;;;;;13.97;23.78;99471.81;5083242;28;20080;-83
2022/03/10 15:25:08;;;;;;;4.22;2.92;;;;;;;13.91;23.02;99477.22;5087997;28;20484;-84
2022/03/10 15:28:09;;;;;;;13.73;6.32;;;;;;;13.73;22.43;99461.31;5087727;28;20473;-84
2022/03/10 15:30:47;;;;;;;5.57;3.13;;;;;;;13.69;23.01;99471.78;5089260;28;20074;-84
2022/03/10 15:33:28;;;;;;;9.13;3.00;;;;;;;13.62;22.88;99455.38;5092020;28;20077;-84
2022/03/10 15:35:55;;;;;;;5.80;3.28;;;;;;;13.67;22.70;99462.09;5082231;28;20614;-84
2022/03/10 15:38:41;;;;;;;6.65;3.38;;;;;;;13.63;23.81;99458.94;5082696;28;20044;-84
2022/03/10 15:41:43;;;;;;;5.15;3.22;;;;;;;13.67;23.77;99470.28;5081640;28;20514;-84
2022/03/10 15:44:16;;;;;;;6.55;3.22;;;;;;;13.66;23.63;99463.16;5082872;28;20100;-84
2022/03/10 15:50:26;;;;;;;6.60;3.28;;;;;;;13.62;23.60;99454.50;5069108;28;20066;-84
2022/03/10 16:03:07;;;;;;;4.03;2.30;;;;;;;13.05;22.18;99434.41;5047304;28;20075;-84
2022/03/10 16:18:51;;;;;;;5.40;2.97;;;;;;;12.66;23.98;99450.16;5032951;28;20045;-84
2022/03/10 16:35:04;;;;;;;3.95;2.63;;;;;;;11.65;25.31;99441.59;5070991;28;20052;-84
2022/03/10 16:44:30;;;;;;;8.35;4.03;;;;;;;11.31;25.36;99440.22;5066575;28;20447;-84
2022/03/10 16:47:29;;;;;;;6.45;3.03;;;;;;;11.26;25.88;99464.38;5079880;28;20483;-83
2022/03/10 16:49:58;;;;;;;35.80;17.23;;;;;;;11.14;25.88;99456.66;5084328;28;20050;-83
2022/03/10 16:52:27;;;;;;;6.50;3.65;;;;;;;10.97;25.33;99452.34;5082321;28;20139;-83
2022/03/10 16:54:54;;;;;;;5.35;2.97;;;;;;;10.89;25.76;99452.44;5089461;28;20048;-84
2022/03/10 16:57:49;;;;;;;7.30;3.25;;;;;;;10.95;26.16;99463.41;5087259;28;20422;-83
2022/03/10 17:00:26;;;;;;;6.50;3.40;;;;;;;10.74;26.15;99455.91;5074005;28;20052;-83
2022/03/10 17:03:09;;;;;;;5.45;3.30;;;;;;;10.75;26.40;99465.75;5081664;28;20064;-83
2022/03/10 17:08:35;;;;;;;6.50;4.07;;;;;;;10.53;27.04;99461.97;5084035;28;20113;-83
2022/03/10 17:11:21;;;;;;;11.85;3.58;;;;;;;10.37;26.92;99457.47;5083677;28;20089;-83
2022/03/10 17:14:40;;;;;;;7.30;3.30;;;;;;;10.14;27.48;99457.31;5086760;28;20895;-83
2022/03/10 17:17:43;;;;;;;5.43;3.40;;;;;;;10.09;27.93;99473.31;5016891;28;20053;-83
2022/03/10 17:20:14;;;;;;;7.95;3.70;;;;;;;9.92;27.99;99472.50;5076407;28;20092;-84
2022/03/10 17:23:34;;;;;;;6.18;3.70;;;;;;;9.85;28.35;99479.66;5079312;28;20082;-83
2022/03/10 17:26:30;;;;;;;5.47;3.50;;;;;;;9.55;28.94;99474.75;5004656;28;20136;-82
2022/03/10 17:29:11;;;;;;;5.15;3.42;;;;;;;9.36;29.51;99486.81;5043500;28;20059;-83
2022/03/10 17:31:49;;;;;;;6.93;3.70;;;;;;;9.23;29.58;99472.91;5087232;28;20091;-82
2022/03/10 17:34:16;;;;;;;5.78;3.65;;;;;;;9.17;29.79;99490.69;5079108;28;20048;-83
2022/03/10 17:36:49;;;;;;;6.72;4.30;;;;;;;9.16;29.63;99471.88;5081753;28;20094;-83
2022/03/10 17:42:33;;;;;;;6.75;4.05;;;;;;;8.97;29.95;99465.75;5055248;28;20122;-83
2022/03/10 17:45:19;;;;;;;8.10;4.38;;;;;;;9.06;30.11;99501.03;5066852;28;20052;-83
2022/03/10 17:47:53;;;;;;;6.40;3.83;;;;;;;8.93;30.36;99490.66;5082628;28;20053;-83
2022/03/10 17:50:24;;;;;;;10.55;4.78;;;;;;;8.70;31.41;99479.59;5068071;28;20048;-82
2022/03/10 17:52:53;;;;;;;9.18;4.65;;;;;;;8.74;31.79;99489.94;5084282;28;20032;-83
2022/03/10 17:55:21;;;;;;;23.02;10.40;;;;;;;8.73;31.20;99499.09;5081270;28;20146;-82
2022/03/10 17:57:49;;;;;;;9.52;5.40;;;;;;;8.64;31.76;99505.47;5084599;28;20130;-82
2022/03/10 18:00:17;;;;;;;10.63;4.90;;;;;;;8.54;31.96;99508.34;5080963;28;20127;-82
2022/03/10 18:02:47;;;;;;;10.63;4.75;;;;;;;8.21;33.11;99491.91;5084648;28;20089;-82
2022/03/10 18:05:36;;;;;;;9.20;4.50;;;;;;;8.07;33.18;99498.78;5071800;28;20533;-82
2022/03/10 18:08:05;;;;;;;10.20;5.03;;;;;;;7.90;33.93;99505.09;5071008;28;20057;-82
2022/03/10 18:13:47;;;;;;;6.65;4.40;;;;;;;7.49;35.08;99489.41;5020344;28;20084;-82
2022/03/10 18:16:34;;;;;;;;;;;;;;;;;;;;;
2022/03/10 18:19:16;;;;;;;8.68;5.00;;;;;;;7.32;35.84;99507.38;5080227;28;20466;-82
2022/03/10 18:22:44;;;;;;;8.95;4.40;;;;;;;7.17;36.51;99506.22;5072637;28;20048;-82
2022/03/10 18:25:53;;;;;;;8.18;5.10;;;;;;;7.31;36.45;99504.81;5074548;28;20163;-82
2022/03/10 18:28:57;;;;;;;8.70;5.05;;;;;;;7.15;37.11;99495.56;5078584;28;20048;-82
2022/03/10 18:31:48;;;;;;;9.07;4.90;;;;;;;7.04;37.63;99499.31;5085359;28;20135;-82
2022/03/10 18:34:53;;;;;;;11.07;5.25;;;;;;;6.86;37.90;99474.13;5086639;28;20574;-81
2022/03/10 18:44:35;;;;;;;10.35;5.38;;;;;;;6.82;39.04;99499.75;5078571;28;20106;-82
2022/03/10 18:50:20;;;;;;;14.75;6.15;;;;;;;6.69;40.11;99497.44;5084168;28;20534;-83
2022/03/10 18:59:16;;;;;;;11.48;5.53;;;;;;;6.83;38.97;99469.03;5033942;28;20052;-83
2022/03/10 19:01:53;;;;;;;8.88;5.35;;;;;;;6.96;38.55;99491.13;5075487;28;20595;-83
2022/03/10 19:04:55;;;;;;;14.55;6.03;;;;;;;6.88;39.06;99493.75;5078687;28;20057;-83
2022/03/10 19:10:21;;;;;;;10.32;5.57;;;;;;;7.06;37.71;99491.91;5080245;28;20052;-83
2022/03/10 19:13:18;;;;;;;12.25;6.20;;;;;;;7.07;37.51;99496.31;5082464;28;20052;-83
2022/03/10 19:15:56;;;;;;;8.52;4.53;;;;;;;7.19;36.41;99487.97;5085387;28;20059;-82
2022/03/10 19:18:30;;;;;;;9.05;5.40;;;;;;;7.17;36.01;99462.97;5083229;28;20139;-83
2022/03/10 19:21:23;;;;;;;10.35;4.95;;;;;;;7.21;35.89;99470.59;5085143;28;20063;-82
2022/03/10 19:23:50;;;;;;;9.23;4.60;;;;;;;7.02;36.76;99462.66;5076512;28;20555;-83
2022/03/10 19:26:52;;;;;;;7.45;4.40;;;;;;;7.03;36.64;99488.66;5085633;28;20046;-82
2022/03/10 19:29:41;;;;;;;9.55;4.43;;;;;;;6.91;36.81;99474.53;5082568;28;20040;-82
2022/03/10 19:32:09;;;;;;;7.15;4.53;;;;;;;6.72;36.56;99464.72;5084175;28;20051;-83
2022/03/10 19:34:42;;;;;;;9.75;4.80;;;;;;;6.75;35.45;99441.94;5082140;28;20048;-83
2022/03/10 19:37:19;;;;;;;7.40;4.10;;;;;;;7.04;35.19;99469.56;5084041;28;20055;-82
2022/03/10 19:40:01;;;;;;;8.35;4.75;;;;;;;7.10;34.38;99465.41;5082758;28;20071;-82
2022/03/10 19:42:57;;;;;;;7.72;4.50;;;;;;;7.07;34.89;99465.72;5087371;28;20491;-82
2022/03/10 19:45:34;;;;;;;8.35;4.60;;;;;;;7.05;34.54;99467.75;5067568;28;20135;-83
2022/03/10 19:48:19;;;;;;;9.43;4.70;;;;;;;7.02;34.33;99468.91;5081581;28;20039;-83
2022/03/10 19:51:08;;;;;;;10.98;4.75;;;;;;;6.89;34.29;99449.50;5083135;28;20044;-82
2022/03/10 19:53:42;;;;;;;9.30;5.22;;;;;;;6.76;35.33;99457.13;5079502;28;20620;-82
2022/03/10 19:56:18;;;;;;;9.35;3.83;;;;;;;6.72;34.93;99454.75;5070262;28;20075;-82
2022/03/10 19:58:48;;;;;;;13.52;4.32;;;;;;;6.54;35.26;99460.13;5084325;28;20048;-82
2022/03/10 20:01:16;;;;;;;7.85;4.03;;;;;;;6.61;35.13;99460.38;5084518;28;20063;-81
2022/03/10 20:03:57;;;;;;;9.02;3.58;;;;;;;6.57;35.76;99463.53;5084441;28;20044;-83
2022/03/10 20:06:25;;;;;;;8.35;4.05;;;;;;;6.43;35.78;99459.47;5087382;28;20058;-82
2022/03/10 20:08:54;;;;;;;36.60;19.30;;;;;;;6.51;35.95;99460.44;5086477;28;20074;-83
2022/03/10 20:11:27;;;;;;;11.52;5.80;;;;;;;6.46;35.94;99465.44;5087013;28;20380;-82
2022/03/10 20:13:59;;;;;;;8.18;4.10;;;;;;;6.19;36.95;99450.09;5085142;28;20110;-83
2022/03/10 20:16:39;;;;;;;9.88;5.10;;;;;;;6.24;36.29;99453.19;5076775;28;20048;-83
2022/03/10 20:19:18;;;;;;;11.93;4.20;;;;;;;6.45;36.02;99461.03;5072843;28;20057;-82
2022/03/10 20:22:04;;;;;;;8.10;5.03;;;;;;;6.26;37.22;99464.69;5080135;28;20127;-83
2022/03/10 20:24:33;;;;;;;8.55;3.85;;;;;;;6.10;37.14;99459.94;5069409;28;20056;-83
2022/03/10 20:27:01;;;;;;;6.45;3.35;;;;;;;6.06;37.16;99457.69;5083870;28;20491;-82
2022/03/10 20:29:32;;;;;;;7.00;4.28;;;;;;;6.05;37.04;99445.19;5085174;28;20052;-81
2022/03/10 20:32:06;;;;;;;11.95;4.45;;;;;;;6.36;36.34;99457.38;5081137;28;20076;-83
2022/03/10 20:34:33;;;;;;;5.53;3.42;;;;;;;6.14;37.37;99433.50;5080042;28;20040;-82
2022/03/10 20:37:09;;;;;;;11.30;4.00;;;;;;;6.33;37.17;99459.56;5076093;28;20076;-82
2022/03/10 20:39:47;;;;;;;9.38;4.07;;;;;;;6.27;36.97;99455.59;5082299;28;20048;-82
2022/03/10 20:42:16;;;;;;;9.27;4.53;;;;;;;6.30;37.03;99454.44;5079071;28;20089;-82
2022/03/10 20:44:44;;;;;;;10.68;3.72;;;;;;;6.17;37.17;99431.34;5080479;28;20047;-82
2022/03/10 20:47:11;;;;;;;7.65;3.83;;;;;;;6.25;37.39;99452.22;5079911;28;20040;-82
2022/03/10 20:49:50;;;;;;;7.28;3.58;;;;;;;6.16;37.76;99453.09;5080583;28;20447;-82
2022/03/10 20:52:24;;;;;;;5.50;3.97;;;;;;;6.18;37.46;99457.34;5085345;28;20130;-82
2022/03/10 20:54:52;;;;;;;13.98;3.88;;;;;;;6.16;37.96;99453.94;5076475;28;20051;-82
2022/03/10 20:57:21;;;;;;;5.60;3.03;;;;;;;5.96;38.10;99436.09;5084863;28;20113;-82
2022/03/10 20:59:51;;;;;;;6.88;3.90;;;;;;;5.87;38.85;99437.00;5087770;28;20052;-82
2022/03/10 21:02:21;;;;;;;7.22;3.35;;;;;;;6.02;39.02;99457.13;5077873;28;20060;-82
2022/03/10 21:04:51;;;;;;;5.72;3.22;;;;;;;5.97;39.04;99448.63;5073429;28;20071;-82
2022/03/10 21:07:22;;;;;;;8.35;4.00;;;;;;;5.90;39.40;99448.34;5083631;28;20048;-82
2022/03/10 21:09:48;;;;;;;7.90;4.28;;;;;;;5.92;39.11;99449.06;5083950;28;20059;-82
2022/03/10 21:12:24;;;;;;;7.55;4.13;;;;;;;5.84;39.79;99435.44;5078366;28;20076;-82
2022/03/10 21:14:51;;;;;;;6.20;3.55;;;;;;;5.75;39.86;99436.31;5075738;28;20043;-82
2022/03/10 21:17:22;;;;;;;7.80;3.88;;;;;;;5.76;39.92;99425.38;5088051;28;20089;-82
2022/03/10 21:19:51;;;;;;;7.70;3.90;;;;;;;5.83;40.08;99440.00;5086792;28;20083;-82
2022/03/10 21:22:19;;;;;;;9.70;4.35;;;;;;;5.66;40.50;99430.81;5079439;28;20491;-82
2022/03/10 21:24:52;;;;;;;6.93;4.07;;;;;;;5.75;40.77;99447.97;5083211;28;20075;-82
2022/03/10 21:27:18;;;;;;;6.15;4.25;;;;;;;5.62;41.44;99447.44;5075154;28;20062;-82
2022/03/10 21:29:47;;;;;;;7.63;4.03;;;;;;;5.62;41.56;99447.44;5086695;28;20289;-82
2022/03/10 21:32:16;;;;;;;7.60;3.78;;;;;;;5.50;41.81;99436.81;5070925;28;20457;-82
2022/03/10 21:34:46;;;;;;;11.27;3.90;;;;;;;5.40;42.01;99425.19;5077427;28;20052;-82
2022/03/10 21:37:12;;;;;;;6.82;3.88;;;;;;;5.30;42.78;99429.78;5085791;28;20069;-81
2022/03/10 21:39:43;;;;;;;9.27;4.43;;;;;;;5.28;42.78;99438.03;5088551;28;20131;-81
2022/03/10 21:42:13;;;;;;;6.40;3.45;;;;;;;5.14;43.28;99430.38;5082578;28;20052;-82
2022/03/10 21:44:41;;;;;;;7.55;4.28;;;;;;;4.97;43.33;99427.41;5083375;28;20048;-82
2022/03/10 21:47:08;;;;;;;8.90;5.95;;;;;;;4.93;44.52;99433.22;5070219;28;20380;-82
2022/03/10 21:49:35;;;;;;;8.82;3.63;;;;;;;4.93;44.37;99436.75;5081049;28;20088;-81
2022/03/10 21:52:01;;;;;;;7.70;4.05;;;;;;;4.86;44.65;99445.53;5082819;28;20127;-81
2022/03/10 21:54:28;;;;;;;5.10;3.28;;;;;;;4.83;44.62;99406.25;5083230;28;20048;-81
2022/03/10 21:56:58;;;;;;;8.45;3.72;;;;;;;4.69;44.99;99406.69;5083514;28;20058;-82
2022/03/10 21:59:24;;;;;;;6.88;3.88;;;;;;;4.82;45.01;99419.88;5076655;28;20087;-81
2022/03/10 22:01:51;;;;;;;7.25;4.35;;;;;;;4.75;45.26;99408.81;5088250;28;20044;-81
2022/03/10 22:04:18;;;;;;;7.72;4.20;;;;;;;4.66;45.59;99413.22;5082480;28;20048;-81
2022/03/10 22:06:45;;;;;;;11.50;4.15;;;;;;;4.53;46.13;99420.72;5085048;28;20055;-81
2022/03/10 22:09:13;;;;;;;6.18;3.80;;;;;;;4.51;46.08;99412.78;5081095;28;20056;-82
2022/03/10 22:11:41;;;;;;;8.65;4.13;;;;;;;4.55;46.07;99410.66;5085452;28;20130;-81
2022/03/10 22:14:09;;;;;;;11.43;4.50;;;;;;;4.39;46.45;99403.13;5087721;28;20050;-81
2022/03/10 22:16:35;;;;;;;8.93;4.50;;;;;;;4.55;46.22;99408.81;5080380;28;20129;-81
2022/03/10 22:19:05;;;;;;;9.15;4.65;;;;;;;4.38;46.79;99404.97;5083788;28;20127;-81
2022/03/10 22:21:32;;;;;;;10.98;3.53;;;;;;;4.50;45.96;99403.00;5084343;28;20048;-82
2022/03/10 22:23:58;;;;;;;8.32;4.45;;;;;;;4.39;46.84;99411.19;5084967;28;20068;-81
2022/03/10 22:26:26;;;;;;;8.20;4.40;;;;;;;4.12;47.61;99393.84;5081161;28;20048;-81
2022/03/10 22:28:53;;;;;;;6.88;4.30;;;;;;;4.18;47.80;99420.22;5084117;28;20457;-81
2022/03/10 22:31:21;;;;;;;8.75;4.25;;;;;;;4.07;47.48;99393.44;5088127;28;20078;-82
2022/03/10 22:33:47;;;;;;;7.63;4.65;;;;;;;4.08;47.95;99414.81;5090369;28;20101;-82
2022/03/10 22:36:14;;;;;;;7.55;4.47;;;;;;;3.86;48.34;99407.81;5081506;28;20079;-81
2022/03/10 22:38:41;;;;;;;12.40;4.68;;;;;;;3.78;48.75;99399.56;5086240;28;20076;-82
2022/03/10 22:41:07;;;;;;;9.23;4.85;;;;;;;3.66;48.96;99400.66;5082801;28;20058;-82
2022/03/10 22:43:34;;;;;;;10.15;4.35;;;;;;;3.46;49.66;99405.94;5088195;28;20058;-81
2022/03/10 22:46:00;;;;;;;7.65;4.40;;;;;;;3.49;49.87;99415.56;5085326;28;20044;-82
2022/03/10 22:48:28;;;;;;;9.68;3.95;;;;;;;3.33;49.83;99406.16;5082508;28;20053;-82
2022/03/10 22:56:23;;;;;;;7.10;4.38;;;;;;;3.07;51.55;99415.59;5090012;28;20512;-80
2022/03/10 22:58:50;;;;;;;7.57;4.47;;;;;;;2.80;51.91;99399.00;5078852;28;20040;-80
2022/03/10 23:01:17;;;;;;;10.05;4.82;;;;;;;2.71;53.05;99409.66;5089454;28;20040;-80
2022/03/10 23:03:45;;;;;;;11.82;5.07;;;;;;;2.60;53.24;99389.94;5089335;28;20051;-80
2022/03/10 23:08:56;;;;;;;7.80;4.40;;;;;;;2.62;53.82;99403.22;5088751;28;20182;-80
2022/03/10 23:11:23;;;;;;;10.10;4.78;;;;;;;2.53;54.56;99402.19;5081056;28;20040;-80
2022/03/10 23:13:49;;;;;;;10.50;4.97;;;;;;;2.38;55.01;99398.06;5086915;28;20427;-80
2022/03/10 23:16:16;;;;;;;10.65;4.68;;;;;;;2.33;55.12;99403.81;5089681;28;20131;-80
2022/03/10 23:18:42;;;;;;;8.90;5.18;;;;;;;2.23;55.52;99408.22;5087396;28;20047;-79
2022/03/10 23:21:12;;;;;;;8.85;5.15;;;;;;;2.10;55.98;99408.38;5087526;28;20403;-81
2022/03/10 23:23:39;;;;;;;;;;;;;;;2.07;56.10;99417.53;5087688;28;20137;-80
2022/03/10 23:26:05;;;;;;;12.88;4.65;;;;;;;1.89;56.82;99400.25;5088924;28;19926;-80
2022/03/10 23:28:32;;;;;;;9.90;4.55;;;;;;;1.94;57.07;99417.69;5089848;28;20135;-81
2022/03/10 23:30:59;;;;;;;8.60;5.00;;;;;;;1.83;57.82;99419.50;5087371;28;20145;-81
2022/03/10 23:33:26;;;;;;;9.77;5.05;;;;;;;1.67;58.39;99423.44;5087023;28;20068;-80
2022/03/10 23:35:52;;;;;;;9.93;4.85;;;;;;;1.58;59.06;99414.28;5089809;28;20324;-80
2022/03/10 23:38:21;;;;;;;11.07;4.60;;;;;;;1.64;58.71;99425.47;5087497;28;20056;-80
2022/03/10 23:40:48;;;;;;;7.80;4.47;;;;;;;1.57;59.14;99414.41;5081307;28;20132;-80
2022/03/10 23:43:14;;;;;;;8.65;4.60;;;;;;;1.49;59.50;99415.00;5089351;28;20048;-80
2022/03/10 23:45:41;;;;;;;9.25;4.93;;;;;;;1.48;59.51;99410.63;5085341;28;20722;-80
2022/03/10 23:48:08;;;;;;;12.15;6.38;;;;;;;1.35;59.56;99400.00;5086263;28;20045;-80
2022/03/10 23:50:34;;;;;;;11.77;5.07;;;;;;;1.32;60.52;99419.00;5076121;28;20174;-80
2022/03/10 23:53:01;;;;;;;9.07;5.05;;;;;;;1.24;61.61;99406.19;5083206;28;20049;-80
2022/03/10 23:55:31;;;;;;;9.80;5.22;;;;;;;1.18;61.99;99403.16;5088976;28;20447;-80
2022/03/10 23:57:57;;;;;;;;;;;;;;;1.20;61.67;99404.72;5089252;28;20163;-80
